Time;durP1;ratioP1;P1;durP2;ratioP2;P2;SDS_P1;SDS_P2;PMS_P1;PMS_P2;Temp;Humidity;BMP_temperature;BMP_pressure;BME280_temperature;BME280_humidity;BME280_pressure;Samples;Min_cycle;Max_cycle;Signal;HPM_P1;HPM_P2
2023/04/04 05:00:55;;;;;;;2.53;2.33;;;2.70;97.20;;;;;;1707209;29;20209;-69
2023/04/04 05:01:46;;;;;;;3.78;2.70;;;2.70;97.20;;;;;;1707123;29;20206;-69
2023/04/04 05:02:37;;;;;;;3.53;2.73;;;2.70;97.20;;;;;;1707062;29;20206;-69
2023/04/04 05:03:28;;;;;;;3.72;3.25;;;2.70;97.20;;;;;;1708811;28;20598;-68
2023/04/04 05:04:20;;;;;;;4.87;3.00;;;2.70;97.20;;;;;;1713736;28;20744;-69
2023/04/04 05:05:11;;;;;;;5.55;2.80;;;2.70;97.20;;;;;;1713886;28;20244;-69
2023/04/04 05:06:03;;;;;;;3.03;2.50;;;2.70;97.20;;;;;;1713539;28;20228;-69
2023/04/04 05:06:53;;;;;;;2.80;2.60;;;2.70;97.20;;;;;;1713511;28;20198;-69
2023/04/04 05:07:46;;;;;;;5.40;2.90;;;2.70;97.20;;;;;;1713724;28;20208;-69
2023/04/04 05:08:36;;;;;;;5.25;2.58;;;2.70;97.20;;;;;;1713833;28;20206;-69
2023/04/04 05:09:28;;;;;;;3.47;3.17;;;2.70;97.20;;;;;;1713905;28;20205;-69
2023/04/04 05:10:19;;;;;;;3.05;2.30;;;2.70;97.20;;;;;;1713667;28;20244;-69
2023/04/04 05:11:10;;;;;;;3.37;3.00;;;2.70;97.20;;;;;;1713851;28;20205;-69
2023/04/04 05:12:01;;;;;;;2.95;2.47;;;2.70;97.20;;;;;;1713750;28;20612;-69
2023/04/04 05:12:53;;;;;;;5.70;2.90;;;2.70;97.20;;;;;;1713723;28;20249;-69
2023/04/04 05:13:44;;;;;;;6.13;3.28;;;2.70;97.20;;;;;;1710320;28;20206;-69
2023/04/04 05:14:36;;;;;;;3.38;2.25;;;2.70;97.20;;;;;;1707046;28;20213;-69
2023/04/04 05:15:28;;;;;;;3.95;2.85;;;2.80;97.20;;;;;;1707123;29;20206;-69
2023/04/04 05:16:21;;;;;;;7.03;3.17;;;2.80;97.20;;;;;;1712467;28;20190;-70
2023/04/04 05:17:11;;;;;;;5.60;2.75;;;2.80;97.20;;;;;;1713485;28;20230;-70
2023/04/04 05:18:03;;;;;;;4.80;3.17;;;2.80;97.20;;;;;;1713657;28;20194;-69
2023/04/04 05:18:54;;;;;;;3.30;2.60;;;2.80;97.20;;;;;;1713568;28;20194;-69
2023/04/04 05:19:46;;;;;;;2.90;2.37;;;2.90;97.20;;;;;;1713541;28;20194;-69
2023/04/04 05:20:36;;;;;;;4.13;2.92;;;2.90;97.20;;;;;;1713390;28;21048;-70
2023/04/04 05:21:28;;;;;;;4.60;2.77;;;2.90;97.20;;;;;;1713624;28;20626;-69
2023/04/04 05:22:19;;;;;;;5.65;2.80;;;2.90;97.20;;;;;;1713420;28;20260;-69
2023/04/04 05:23:11;;;;;;;6.03;3.23;;;2.90;97.20;;;;;;1713358;28;20194;-69
2023/04/04 05:24:01;;;;;;;3.53;3.17;;;2.90;97.20;;;;;;1713135;28;20819;-69
2023/04/04 05:24:53;;;;;;;5.07;2.90;;;2.80;97.20;;;;;;1709748;28;20198;-69
2023/04/04 05:25:44;;;;;;;4.57;2.85;;;2.90;97.20;;;;;;1707015;29;20450;-69
2023/04/04 05:26:36;;;;;;;4.20;2.90;;;2.90;97.20;;;;;;1706820;29;20206;-70
2023/04/04 05:27:26;;;;;;;3.97;2.90;;;2.80;97.20;;;;;;1708596;28;20677;-69
2023/04/04 05:28:18;;;;;;;3.57;2.80;;;2.80;97.20;;;;;;1714105;28;20590;-68
2023/04/04 05:29:09;;;;;;;3.35;3.00;;;2.80;97.20;;;;;;1712920;28;20209;-68
2023/04/04 05:30:00;;;;;;;9.73;2.83;;;2.90;97.20;;;;;;1708390;28;20203;-69
2023/04/04 05:30:52;;;;;;;4.45;3.17;;;2.90;97.20;;;;;;1708276;28;20234;-68
2023/04/04 05:31:46;;;;;;;7.18;2.80;;;2.90;97.20;;;;;;1708348;28;20206;-68
2023/04/04 05:32:36;;;;;;;3.63;3.17;;;2.90;97.20;;;;;;1708166;28;20210;-69
2023/04/04 05:33:28;;;;;;;3.87;2.87;;;2.90;97.20;;;;;;1712296;28;20198;-68
2023/04/04 05:34:19;;;;;;;3.95;2.70;;;2.90;97.20;;;;;;1714699;28;20206;-68
2023/04/04 05:35:10;;;;;;;4.23;3.00;;;2.90;97.20;;;;;;1714755;28;20202;-69
2023/04/04 05:36:01;;;;;;;4.88;3.13;;;2.90;97.20;;;;;;1714082;28;20217;-69
2023/04/04 05:36:53;;;;;;;5.57;2.90;;;2.90;97.20;;;;;;1714861;28;20308;-68
2023/04/04 05:37:44;;;;;;;5.07;2.67;;;2.90;97.20;;;;;;1714878;28;20205;-69
2023/04/04 05:38:36;;;;;;;4.07;2.93;;;3.00;97.20;;;;;;1714842;28;20194;-68
2023/04/04 05:39:26;;;;;;;4.47;2.67;;;3.00;97.20;;;;;;1714891;28;20248;-69
2023/04/04 05:40:19;;;;;;;2.83;2.43;;;3.00;97.20;;;;;;1714645;28;20209;-68
2023/04/04 05:41:10;;;;;;;4.05;2.80;;;3.00;97.20;;;;;;1714763;28;20445;-69
2023/04/04 05:42:01;;;;;;;3.33;3.03;;;3.00;97.20;;;;;;1714880;28;20284;-69
2023/04/04 05:42:56;;;;;;;2.70;2.50;;;3.00;97.20;;;;;;1714820;28;20851;-68
2023/04/04 05:43:48;;;;;;;5.80;2.85;;;3.00;97.20;;;;;;1714922;28;20229;-69
2023/04/04 05:44:38;;;;;;;3.38;2.70;;;3.00;97.20;;;;;;1714810;28;20206;-68
2023/04/04 05:45:30;;;;;;;4.70;3.00;;;3.00;97.20;;;;;;1714841;28;20666;-68
2023/04/04 05:46:21;;;;;;;5.05;3.00;;;3.00;97.20;;;;;;1714587;28;20229;-68
2023/04/04 05:47:14;;;;;;;4.47;3.07;;;3.00;97.20;;;;;;1714781;28;20680;-69
2023/04/04 05:48:05;;;;;;;5.38;2.90;;;3.10;97.20;;;;;;1714683;28;20213;-69
2023/04/04 05:48:57;;;;;;;10.03;3.80;;;3.10;97.20;;;;;;1714884;28;20206;-68
2023/04/04 05:49:48;;;;;;;5.93;3.40;;;3.10;97.20;;;;;;1714853;28;20456;-68
2023/04/04 05:50:39;;;;;;;7.77;3.33;;;3.10;97.20;;;;;;1714413;28;20300;-68
2023/04/04 05:51:30;;;;;;;5.80;3.30;;;3.10;97.20;;;;;;1711190;28;20718;-68
2023/04/04 05:52:22;;;;;;;4.87;3.03;;;3.20;97.20;;;;;;1709713;28;20612;-68
2023/04/04 05:53:13;;;;;;;5.35;2.97;;;3.20;97.20;;;;;;1708154;29;20210;-69
2023/04/04 05:54:06;;;;;;;5.90;2.40;;;3.20;97.20;;;;;;1708248;29;20208;-68
2023/04/04 05:54:57;;;;;;;5.75;3.30;;;3.20;97.20;;;;;;1708132;29;20504;-68
2023/04/04 05:55:51;;;;;;;4.37;3.00;;;3.20;97.20;;;;;;1708214;29;20664;-68
2023/04/04 05:56:42;;;;;;;5.22;3.15;;;3.20;97.20;;;;;;1708097;29;20577;-68
2023/04/04 05:57:34;;;;;;;5.30;2.67;;;3.30;97.20;;;;;;1707487;28;20293;-68
2023/04/04 05:58:25;;;;;;;4.15;2.80;;;3.20;97.20;;;;;;1714346;28;20209;-68
2023/04/04 05:59:17;;;;;;;5.13;3.50;;;3.30;97.20;;;;;;1714544;28;20672;-68
2023/04/04 06:00:09;;;;;;;4.35;2.60;;;3.30;97.20;;;;;;1709495;28;20294;-68
2023/04/04 06:01:02;;;;;;;4.40;2.78;;;3.30;97.20;;;;;;1714554;28;20252;-68
2023/04/04 06:01:52;;;;;;;3.15;2.83;;;3.30;97.20;;;;;;1714592;28;20202;-68
2023/04/04 06:02:45;;;;;;;3.80;3.10;;;3.30;97.20;;;;;;1714474;28;20206;-68
2023/04/04 06:03:36;;;;;;;5.80;3.45;;;3.40;97.20;;;;;;1714491;28;20224;-69
2023/04/04 06:04:28;;;;;;;4.30;2.70;;;3.40;97.20;;;;;;1714609;28;20224;-69
2023/04/04 06:05:19;;;;;;;4.38;2.90;;;3.40;97.20;;;;;;1714694;28;20206;-69
2023/04/04 06:06:11;;;;;;;4.85;3.10;;;3.50;97.20;;;;;;1714130;28;20281;-68
2023/04/04 06:07:02;;;;;;;4.88;3.17;;;3.50;97.20;;;;;;1714075;28;20198;-68
2023/04/04 06:07:54;;;;;;;6.60;3.20;;;3.50;97.20;;;;;;1713931;28;20667;-68
2023/04/04 06:08:44;;;;;;;3.75;3.20;;;3.50;97.20;;;;;;1713931;28;20236;-69
2023/04/04 06:09:37;;;;;;;4.87;3.00;;;3.50;97.20;;;;;;1714002;28;20196;-68
2023/04/04 06:10:27;;;;;;;3.30;3.00;;;3.60;97.20;;;;;;1713205;28;20600;-69
2023/04/04 06:11:20;;;;;;;4.60;3.10;;;3.60;97.20;;;;;;1713665;28;20198;-69
2023/04/04 06:12:11;;;;;;;3.42;2.85;;;3.60;97.20;;;;;;1710839;28;20213;-68
2023/04/04 06:13:03;;;;;;;5.30;3.03;;;3.60;97.20;;;;;;1714058;28;20205;-68
2023/04/04 06:13:53;;;;;;;4.45;3.28;;;3.70;97.20;;;;;;1714501;28;20210;-68
2023/04/04 06:14:45;;;;;;;3.20;2.90;;;3.70;97.20;;;;;;1714139;28;20194;-68
2023/04/04 06:15:36;;;;;;;3.42;3.13;;;3.70;97.20;;;;;;1713651;28;20472;-68
2023/04/04 06:16:28;;;;;;;5.10;3.57;;;3.70;97.20;;;;;;1713391;28;20206;-68
2023/04/04 06:17:19;;;;;;;5.43;3.35;;;3.80;97.20;;;;;;1714057;28;20205;-69
2023/04/04 06:18:11;;;;;;;4.35;3.08;;;3.80;97.20;;;;;;1714468;28;20691;-68
2023/04/04 06:19:03;;;;;;;4.60;3.45;;;3.90;97.20;;;;;;1714541;28;20210;-68
2023/04/04 06:19:54;;;;;;;3.38;3.08;;;3.90;97.20;;;;;;1714401;28;20293;-68
2023/04/04 06:20:46;;;;;;;3.70;2.80;;;3.90;97.20;;;;;;1714069;28;20301;-68
2023/04/04 06:21:36;;;;;;;5.43;3.55;;;4.00;97.20;;;;;;1714307;28;20445;-68
2023/04/04 06:22:28;;;;;;;4.97;3.27;;;4.00;97.20;;;;;;1714560;28;20220;-68
2023/04/04 06:23:19;;;;;;;5.18;2.97;;;4.10;97.20;;;;;;1714296;28;20213;-68
2023/04/04 06:24:10;;;;;;;3.37;3.07;;;4.10;97.20;;;;;;1714586;28;20206;-69
2023/04/04 06:25:01;;;;;;;5.60;3.80;;;4.10;97.20;;;;;;1714528;28;20230;-69
2023/04/04 06:25:53;;;;;;;5.27;3.40;;;4.10;97.20;;;;;;1713874;28;20206;-68
2023/04/04 06:26:44;;;;;;;4.03;3.38;;;4.20;97.20;;;;;;1714440;28;20201;-68
2023/04/04 06:27:36;;;;;;;4.50;3.50;;;4.20;97.20;;;;;;1714271;28;20202;-68
2023/04/04 06:28:26;;;;;;;4.05;3.00;;;4.30;97.20;;;;;;1713944;28;20240;-69
2023/04/04 06:29:18;;;;;;;6.37;3.00;;;4.30;97.20;;;;;;1713985;28;20241;-70
2023/04/04 06:30:10;;;;;;;4.18;3.40;;;4.30;97.20;;;;;;1713355;28;20423;-69
2023/04/04 06:31:05;;;;;;;3.33;2.80;;;4.40;97.20;;;;;;1713950;28;20214;-69
2023/04/04 06:31:57;;;;;;;3.85;3.45;;;4.40;97.20;;;;;;1711682;28;20205;-69
2023/04/04 06:32:48;;;;;;;4.80;2.88;;;4.40;97.20;;;;;;1714127;28;20202;-69
2023/04/04 06:33:40;;;;;;;4.45;3.28;;;4.40;97.20;;;;;;1714389;28;20202;-70
2023/04/04 06:34:32;;;;;;;4.25;3.13;;;4.50;97.20;;;;;;1714419;28;20217;-69
2023/04/04 06:35:23;;;;;;;6.82;3.50;;;4.50;97.20;;;;;;1712045;28;20214;-69
2023/04/04 06:36:15;;;;;;;5.50;3.07;;;4.50;97.20;;;;;;1711906;28;20190;-69
2023/04/04 06:37:05;;;;;;;4.15;3.13;;;4.50;97.20;;;;;;1713577;28;20209;-69
2023/04/04 06:37:57;;;;;;;7.07;2.70;;;4.60;97.20;;;;;;1707608;28;20249;-69
2023/04/04 06:38:48;;;;;;;8.10;3.00;;;4.60;97.20;;;;;;1706528;28;20254;-69
2023/04/04 06:39:39;;;;;;;5.40;3.37;;;4.70;97.20;;;;;;1706852;28;20210;-69
2023/04/04 06:40:31;;;;;;;5.30;3.33;;;4.70;97.20;;;;;;1707299;29;20317;-69
2023/04/04 06:41:22;;;;;;;3.60;3.10;;;4.70;97.20;;;;;;1707280;29;20297;-69
2023/04/04 06:42:13;;;;;;;5.70;3.10;;;4.70;97.20;;;;;;1707147;29;20202;-69
2023/04/04 06:43:05;;;;;;;5.60;3.50;;;4.80;97.20;;;;;;1706745;28;20202;-69
2023/04/04 06:43:56;;;;;;;3.42;2.90;;;4.80;97.20;;;;;;1708571;28;20234;-69
2023/04/04 06:44:48;;;;;;;3.53;3.22;;;4.80;97.20;;;;;;1709783;28;20471;-69
2023/04/04 06:45:39;;;;;;;4.38;2.95;;;4.80;97.20;;;;;;1713536;28;20243;-69
2023/04/04 06:46:32;;;;;;;5.30;2.97;;;4.90;97.20;;;;;;1713297;28;20197;-68
2023/04/04 06:47:22;;;;;;;5.45;3.30;;;4.90;97.20;;;;;;1713870;28;20206;-68
2023/04/04 06:48:14;;;;;;;6.40;2.77;;;5.00;97.20;;;;;;1713911;28;20276;-68
2023/04/04 06:49:06;;;;;;;5.47;3.03;;;5.00;97.20;;;;;;1713861;28;20218;-68
2023/04/04 06:49:58;;;;;;;4.90;2.92;;;5.00;97.20;;;;;;1714190;28;20729;-68
2023/04/04 06:50:49;;;;;;;3.08;2.78;;;5.10;97.20;;;;;;1714263;28;20270;-68
2023/04/04 06:51:41;;;;;;;5.00;2.97;;;5.10;97.20;;;;;;1714312;28;20209;-68
2023/04/04 06:52:32;;;;;;;4.60;2.92;;;5.10;97.20;;;;;;1713643;28;20698;-68
2023/04/04 06:53:25;;;;;;;3.90;3.17;;;5.10;97.20;;;;;;1713549;28;20210;-68
2023/04/04 06:54:15;;;;;;;3.47;3.15;;;5.20;97.20;;;;;;1713593;28;20449;-67
2023/04/04 06:55:08;;;;;;;4.13;2.90;;;5.20;97.20;;;;;;1713089;28;20194;-68
2023/04/04 06:55:59;;;;;;;7.53;2.75;;;5.20;97.20;;;;;;1713299;28;20923;-68
2023/04/04 06:56:51;;;;;;;4.03;2.87;;;5.30;97.20;;;;;;1713732;28;20742;-68
2023/04/04 06:57:42;;;;;;;3.55;2.53;;;5.30;97.20;;;;;;1713677;28;20449;-68
2023/04/04 06:58:34;;;;;;;5.10;2.97;;;5.40;97.20;;;;;;1713864;28;20529;-68
2023/04/04 06:59:24;;;;;;;5.35;3.25;;;5.40;97.20;;;;;;1713714;28;20217;-68
2023/04/04 07:00:17;;;;;;;3.60;2.70;;;5.40;97.20;;;;;;1713591;28;20198;-68
2023/04/04 07:01:08;;;;;;;4.20;3.63;;;5.50;97.20;;;;;;1713749;28;20643;-68
2023/04/04 07:01:59;;;;;;;3.77;3.13;;;5.50;97.20;;;;;;1713704;28;20543;-68
2023/04/04 07:02:56;;;;;;;8.20;3.30;;;5.50;97.20;;;;;;1713444;28;20206;-68
2023/04/04 07:03:48;;;;;;;3.85;2.90;;;5.60;97.20;;;;;;1713723;28;20206;-68
2023/04/04 07:04:40;;;;;;;3.38;2.53;;;5.60;97.20;;;;;;1713707;28;20208;-68
2023/04/04 07:05:32;;;;;;;3.70;2.60;;;5.60;97.20;;;;;;1707152;28;20204;-68
2023/04/04 07:06:23;;;;;;;6.30;3.33;;;5.60;97.20;;;;;;1706626;29;20291;-68
2023/04/04 07:07:15;;;;;;;3.90;3.13;;;5.70;97.20;;;;;;1706868;29;20303;-68
2023/04/04 07:08:05;;;;;;;6.97;2.58;;;5.70;97.20;;;;;;1707238;29;20457;-68
2023/04/04 07:08:57;;;;;;;8.93;2.90;;;5.80;97.20;;;;;;1707417;29;20226;-68
2023/04/04 07:09:48;;;;;;;3.67;2.80;;;5.80;97.20;;;;;;1707465;29;20446;-68
2023/04/04 07:10:40;;;;;;;5.43;2.70;;;5.80;97.20;;;;;;1707441;29;20218;-68
2023/04/04 07:11:30;;;;;;;4.03;3.13;;;5.90;97.20;;;;;;1707479;29;20241;-68
2023/04/04 07:12:22;;;;;;;6.03;3.20;;;5.90;97.20;;;;;;1707517;29;20202;-68
2023/04/04 07:13:14;;;;;;;3.85;2.65;;;5.90;97.20;;;;;;1707390;29;20202;-68
2023/04/04 07:14:05;;;;;;;7.90;2.92;;;5.90;97.20;;;;;;1707558;29;20203;-68
2023/04/04 07:14:57;;;;;;;6.60;3.20;;;5.90;97.20;;;;;;1709082;28;20207;-68
2023/04/04 07:15:48;;;;;;;3.75;2.35;;;5.90;97.20;;;;;;1714209;28;20449;-68
2023/04/04 07:16:40;;;;;;;3.50;2.83;;;5.90;97.20;;;;;;1713600;28;20272;-68
2023/04/04 07:17:31;;;;;;;4.13;3.20;;;5.90;97.20;;;;;;1714155;28;20210;-68
2023/04/04 07:18:22;;;;;;;5.53;2.80;;;6.00;97.20;;;;;;1714222;28;20206;-68
2023/04/04 07:19:13;;;;;;;3.35;2.60;;;6.00;97.20;;;;;;1714219;28;20198;-68
2023/04/04 07:20:08;;;;;;;4.40;3.40;;;6.00;97.20;;;;;;1714216;28;20212;-68
2023/04/04 07:20:59;;;;;;;3.55;2.60;;;6.00;97.20;;;;;;1714081;28;20233;-68
2023/04/04 07:21:51;;;;;;;3.10;2.50;;;6.00;97.20;;;;;;1714187;28;20273;-68
2023/04/04 07:22:43;;;;;;;3.33;3.00;;;6.00;97.20;;;;;;1714064;28;20652;-68
2023/04/04 07:23:35;;;;;;;3.10;2.78;;;6.10;97.20;;;;;;1714144;28;20284;-68
2023/04/04 07:24:25;;;;;;;3.47;2.65;;;6.10;97.20;;;;;;1714211;28;20210;-68
2023/04/04 07:25:17;;;;;;;5.20;3.10;;;6.10;97.20;;;;;;1709589;28;20222;-68
2023/04/04 07:26:08;;;;;;;4.97;2.38;;;6.10;97.20;;;;;;1706935;29;20206;-68
2023/04/04 07:26:59;;;;;;;5.90;3.87;;;6.10;97.20;;;;;;1707424;29;20198;-68
2023/04/04 07:27:52;;;;;;;3.63;2.50;;;6.20;97.20;;;;;;1707296;29;20595;-68
2023/04/04 07:28:43;;;;;;;4.40;2.63;;;6.20;97.20;;;;;;1707409;29;20203;-68
2023/04/04 07:29:34;;;;;;;5.63;2.80;;;6.20;97.20;;;;;;1707388;29;20206;-68
2023/04/04 07:30:28;;;;;;;3.80;2.57;;;6.30;97.20;;;;;;1707305;29;20209;-68
2023/04/04 07:31:20;;;;;;;4.60;2.67;;;6.30;97.20;;;;;;1707510;29;20454;-68
2023/04/04 07:32:11;;;;;;;4.97;3.03;;;6.30;97.20;;;;;;1707451;29;20210;-68
2023/04/04 07:33:03;;;;;;;3.53;2.60;;;6.40;97.20;;;;;;1707245;29;20289;-68
2023/04/04 07:33:54;;;;;;;4.47;2.97;;;6.40;97.20;;;;;;1707435;29;20210;-68
2023/04/04 07:34:46;;;;;;;2.87;2.50;;;6.40;97.20;;;;;;1707314;28;20202;-68
2023/04/04 07:35:38;;;;;;;5.00;2.67;;;6.40;97.20;;;;;;1713956;28;20699;-68
2023/04/04 07:36:30;;;;;;;5.00;3.22;;;6.40;97.20;;;;;;1713648;28;20210;-68
2023/04/04 07:37:21;;;;;;;3.80;2.42;;;6.50;97.20;;;;;;1713997;28;20213;-68
2023/04/04 07:38:13;;;;;;;3.97;2.90;;;6.50;97.20;;;;;;1714001;28;20226;-68
2023/04/04 07:39:04;;;;;;;4.65;2.50;;;6.50;97.20;;;;;;1713963;28;20237;-68
2023/04/04 07:39:55;;;;;;;4.50;3.00;;;6.60;97.20;;;;;;1714081;28;20205;-68
2023/04/04 07:40:47;;;;;;;3.95;2.60;;;6.60;97.20;;;;;;1714148;28;20222;-68
2023/04/04 07:41:40;;;;;;;4.82;2.50;;;6.70;97.20;;;;;;1713989;28;20606;-68
2023/04/04 07:42:31;;;;;;;4.07;2.72;;;6.70;97.20;;;;;;1713995;28;20220;-68
2023/04/04 07:43:23;;;;;;;6.40;2.87;;;6.80;97.20;;;;;;1713216;28;20201;-68
2023/04/04 07:44:14;;;;;;;3.92;2.80;;;6.80;97.20;;;;;;1714159;28;20707;-68
2023/04/04 07:45:07;;;;;;;3.83;2.80;;;6.80;97.20;;;;;;1714149;28;20197;-68
2023/04/04 07:45:59;;;;;;;8.52;3.42;;;6.90;97.20;;;;;;1713500;28;20676;-68
2023/04/04 07:46:50;;;;;;;4.78;3.33;;;6.90;97.20;;;;;;1714032;28;20242;-68
2023/04/04 07:47:43;;;;;;;5.77;3.63;;;6.90;97.20;;;;;;1713912;28;20209;-68
2023/04/04 07:48:34;;;;;;;3.85;2.58;;;7.00;97.20;;;;;;1713953;28;20693;-68
2023/04/04 07:49:26;;;;;;;4.20;2.80;;;7.00;97.20;;;;;;1713985;28;20577;-68
2023/04/04 07:50:17;;;;;;;3.67;2.92;;;7.00;97.20;;;;;;1713939;28;20220;-68
2023/04/04 07:51:12;;;;;;;4.45;2.80;;;7.10;97.20;;;;;;1714156;28;20672;-68
2023/04/04 07:52:03;;;;;;;4.38;3.05;;;7.10;97.20;;;;;;1714038;28;20205;-68
2023/04/04 07:52:57;;;;;;;4.68;2.75;;;7.20;97.20;;;;;;1713653;28;20206;-68
2023/04/04 07:53:48;;;;;;;3.10;2.42;;;7.20;97.20;;;;;;1709352;28;20222;-68
2023/04/04 07:54:40;;;;;;;5.03;3.00;;;7.30;97.20;;;;;;1707276;29;20673;-68
2023/04/04 07:55:30;;;;;;;2.83;2.40;;;7.30;97.20;;;;;;1707354;29;20213;-68
2023/04/04 07:56:22;;;;;;;4.20;2.87;;;7.30;97.20;;;;;;1706859;29;20297;-68
2023/04/04 07:57:13;;;;;;;3.90;2.97;;;7.30;97.20;;;;;;1707188;29;20206;-68
2023/04/04 07:58:05;;;;;;;4.00;3.17;;;7.30;97.20;;;;;;1707314;29;20206;-68
2023/04/04 07:58:56;;;;;;;4.85;2.90;;;7.40;97.20;;;;;;1707289;29;20265;-68
2023/04/04 07:59:47;;;;;;;4.97;3.00;;;7.40;97.20;;;;;;1707331;29;20269;-68
2023/04/04 08:00:38;;;;;;;2.80;2.60;;;7.40;97.20;;;;;;1707152;29;20234;-68
2023/04/04 08:01:30;;;;;;;4.20;2.60;;;7.40;97.20;;;;;;1707358;28;20206;-68
2023/04/04 08:02:21;;;;;;;4.63;2.70;;;7.40;97.20;;;;;;1707345;29;20683;-68
2023/04/04 08:03:13;;;;;;;2.73;2.10;;;7.40;97.20;;;;;;1707082;29;20728;-68
2023/04/04 08:04:04;;;;;;;3.90;2.88;;;7.50;97.20;;;;;;1713408;28;20476;-68
2023/04/04 08:04:56;;;;;;;3.75;2.88;;;7.50;97.20;;;;;;1713912;28;20638;-68
2023/04/04 08:05:46;;;;;;;2.97;2.67;;;7.60;97.20;;;;;;1714003;28;20212;-68
2023/04/04 08:06:40;;;;;;;2.57;2.27;;;7.70;97.20;;;;;;1713328;28;20205;-68
2023/04/04 08:07:30;;;;;;;4.65;2.60;;;7.70;97.20;;;;;;1713815;28;20687;-68
2023/04/04 08:08:22;;;;;;;3.10;2.60;;;7.80;97.20;;;;;;1713815;28;20641;-68
2023/04/04 08:09:13;;;;;;;3.90;2.97;;;7.80;97.20;;;;;;1713874;28;20452;-68
2023/04/04 08:10:06;;;;;;;4.37;2.97;;;7.80;97.20;;;;;;1713891;28;20212;-68
2023/04/04 08:10:56;;;;;;;2.78;2.58;;;7.90;97.20;;;;;;1713741;28;20224;-68
2023/04/04 08:11:48;;;;;;;3.10;2.70;;;7.90;97.20;;;;;;1713905;28;20198;-68
2023/04/04 08:12:40;;;;;;;5.10;2.90;;;7.90;97.20;;;;;;1713701;28;20221;-68
2023/04/04 08:13:31;;;;;;;3.95;2.80;;;8.00;97.20;;;;;;1711773;28;20272;-68
2023/04/04 08:14:22;;;;;;;5.50;2.60;;;8.00;97.20;;;;;;1707300;29;20262;-68
2023/04/04 08:15:14;;;;;;;2.80;2.20;;;8.00;97.20;;;;;;1707191;29;20594;-68
2023/04/04 08:16:06;;;;;;;3.38;2.95;;;8.10;97.20;;;;;;1706757;28;20209;-68
2023/04/04 08:16:57;;;;;;;2.90;2.60;;;8.10;97.20;;;;;;1707148;29;20256;-68
2023/04/04 08:17:49;;;;;;;4.07;2.60;;;8.20;97.20;;;;;;1707231;29;20206;-68
2023/04/04 08:18:39;;;;;;;3.75;2.85;;;8.20;97.20;;;;;;1707121;29;20213;-68
2023/04/04 08:19:31;;;;;;;3.30;2.87;;;8.20;97.20;;;;;;1707286;28;20657;-68
2023/04/04 08:20:22;;;;;;;4.30;2.75;;;8.30;97.20;;;;;;1707176;29;20202;-68
2023/04/04 08:21:14;;;;;;;5.68;3.00;;;8.30;97.20;;;;;;1707273;29;20202;-68
2023/04/04 08:22:08;;;;;;;3.17;2.88;;;8.40;97.20;;;;;;1707248;29;20600;-69
2023/04/04 08:23:00;;;;;;;3.28;2.58;;;8.40;97.20;;;;;;1706867;29;20218;-68
2023/04/04 08:23:51;;;;;;;3.70;2.55;;;8.40;97.20;;;;;;1710830;28;20727;-68
2023/04/04 08:24:43;;;;;;;3.28;2.85;;;8.40;97.20;;;;;;1707154;29;20637;-67
2023/04/04 08:25:35;;;;;;;2.80;2.50;;;8.50;97.20;;;;;;1707000;28;20301;-67
2023/04/04 08:26:25;;;;;;;4.18;2.75;;;8.50;97.20;;;;;;1706604;28;20202;-67
2023/04/04 08:27:17;;;;;;;3.77;2.80;;;8.60;97.20;;;;;;1706992;29;20673;-67
2023/04/04 08:28:08;;;;;;;4.75;2.83;;;8.70;97.20;;;;;;1707149;29;20445;-67
2023/04/04 08:29:00;;;;;;;3.47;2.77;;;8.70;97.20;;;;;;1707143;28;20679;-67
2023/04/04 08:29:51;;;;;;;3.40;2.92;;;8.80;97.20;;;;;;1707100;29;20653;-67
2023/04/04 08:30:43;;;;;;;3.40;2.87;;;8.90;97.20;;;;;;1707001;29;20658;-67
2023/04/04 08:31:33;;;;;;;3.03;2.70;;;8.90;97.20;;;;;;1707093;29;20461;-68
2023/04/04 08:32:25;;;;;;;3.70;2.67;;;8.90;97.20;;;;;;1707175;29;20206;-67
2023/04/04 08:33:16;;;;;;;4.38;2.90;;;9.00;97.20;;;;;;1706866;29;20453;-67
2023/04/04 08:34:08;;;;;;;4.70;3.13;;;9.10;97.20;;;;;;1713277;28;20229;-67
2023/04/04 08:35:00;;;;;;;4.57;3.30;;;9.20;97.20;;;;;;1713790;28;20210;-67
2023/04/04 08:35:50;;;;;;;3.40;2.67;;;9.20;97.20;;;;;;1713277;28;20208;-68
2023/04/04 08:36:42;;;;;;;3.40;2.70;;;9.30;97.20;;;;;;1713847;28;20198;-67
2023/04/04 08:37:34;;;;;;;3.38;2.70;;;9.30;97.20;;;;;;1713636;28;20210;-67
2023/04/04 08:38:26;;;;;;;3.20;2.88;;;9.40;97.20;;;;;;1713694;28;20260;-67
2023/04/04 08:39:17;;;;;;;4.88;3.13;;;9.30;97.20;;;;;;1713660;28;20232;-67
2023/04/04 08:40:09;;;;;;;3.80;2.80;;;9.40;97.20;;;;;;1713773;28;20223;-67
2023/04/04 08:41:00;;;;;;;6.28;3.05;;;9.40;97.20;;;;;;1713643;28;20222;-67
2023/04/04 08:42:01;;;;;;;4.90;3.10;;;9.50;97.20;;;;;;1713816;28;20202;-67
2023/04/04 08:42:52;;;;;;;3.58;3.17;;;9.50;97.20;;;;;;1713531;28;20245;-67
2023/04/04 08:43:47;;;;;;;3.78;2.85;;;9.50;97.20;;;;;;1713056;28;20221;-67
2023/04/04 08:44:42;;;;;;;3.05;2.60;;;9.50;97.20;;;;;;1713797;28;20268;-67
2023/04/04 08:45:36;;;;;;;4.97;3.00;;;9.60;97.20;;;;;;1713816;28;20205;-67
2023/04/04 08:46:28;;;;;;;4.68;3.00;;;9.60;97.20;;;;;;1713266;28;20240;-67
2023/04/04 08:47:21;;;;;;;5.50;4.20;;;9.70;97.20;;;;;;1713712;28;20206;-67
2023/04/04 08:48:15;;;;;;;9.25;7.40;;;9.80;97.20;;;;;;1713898;28;20241;-67
2023/04/04 08:49:06;;;;;;;6.85;4.82;;;9.90;97.20;;;;;;1713776;28;20209;-67
2023/04/04 08:50:00;;;;;;;5.33;4.57;;;10.00;97.20;;;;;;1713673;28;20236;-67
2023/04/04 08:50:56;;;;;;;4.45;3.75;;;10.10;97.20;;;;;;1713709;28;20527;-67
2023/04/04 08:51:48;;;;;;;5.07;3.67;;;10.20;97.20;;;;;;1713823;28;20232;-67
2023/04/04 08:52:42;;;;;;;5.10;3.10;;;10.30;97.20;;;;;;1713495;28;20264;-67
2023/04/04 08:53:34;;;;;;;4.32;3.65;;;10.40;97.20;;;;;;1712258;28;20210;-67
2023/04/04 08:54:28;;;;;;;3.30;2.90;;;10.40;97.20;;;;;;1707225;28;20202;-67
2023/04/04 08:55:20;;;;;;;3.78;3.30;;;10.40;97.20;;;;;;1707083;29;20680;-67
2023/04/04 08:56:12;;;;;;;2.90;2.60;;;10.50;97.20;;;;;;1706517;29;20203;-67
2023/04/04 08:57:03;;;;;;;4.30;2.72;;;10.60;97.20;;;;;;1707042;29;20203;-67
2023/04/04 08:57:54;;;;;;;3.83;2.83;;;10.60;97.20;;;;;;1707047;29;20202;-67
2023/04/04 08:58:45;;;;;;;3.55;2.92;;;10.50;97.20;;;;;;1707056;29;20457;-67
2023/04/04 08:59:37;;;;;;;2.90;2.67;;;10.50;97.20;;;;;;1707073;29;20209;-67
2023/04/04 09:00:28;;;;;;;5.07;2.97;;;10.50;97.20;;;;;;1707009;29;20215;-67
2023/04/04 09:01:21;;;;;;;3.63;2.65;;;10.50;97.20;;;;;;1707032;29;20203;-67
2023/04/04 09:02:22;;;;;;;3.97;3.15;;;10.60;97.20;;;;;;1707521;28;20357;-66
2023/04/04 09:03:20;;;;;;;5.55;3.72;;;10.70;97.20;;;;;;1708199;29;20230;-67
2023/04/04 09:04:11;;;;;;;3.97;3.50;;;10.90;97.20;;;;;;1714331;28;20228;-67
2023/04/04 09:05:03;;;;;;;5.53;2.93;;;11.10;97.20;;;;;;1715295;28;20296;-67
2023/04/04 09:05:54;;;;;;;4.43;2.65;;;11.30;97.20;;;;;;1714594;28;20692;-67
2023/04/04 09:06:47;;;;;;;3.35;3.05;;;11.40;97.20;;;;;;1715214;28;20205;-67
2023/04/04 09:07:40;;;;;;;4.55;3.00;;;11.50;97.20;;;;;;1714930;28;20664;-67
2023/04/04 09:08:33;;;;;;;2.72;2.40;;;11.70;97.20;;;;;;1715057;28;20205;-67
2023/04/04 09:09:25;;;;;;;3.95;2.70;;;11.70;97.20;;;;;;1715048;28;20725;-67
2023/04/04 09:10:17;;;;;;;3.33;2.95;;;11.80;97.20;;;;;;1714822;28;20587;-67
2023/04/04 09:11:09;;;;;;;4.13;2.78;;;11.90;97.20;;;;;;1715123;28;20234;-67
2023/04/04 09:12:00;;;;;;;3.88;3.17;;;11.90;97.20;;;;;;1714957;28;20206;-67
2023/04/04 09:12:54;;;;;;;3.85;2.55;;;12.10;97.20;;;;;;1714800;28;20386;-67
2023/04/04 09:13:47;;;;;;;6.57;3.60;;;12.20;97.20;;;;;;1713006;28;20240;-67
2023/04/04 09:14:40;;;;;;;3.83;2.65;;;12.30;97.20;;;;;;1708232;29;20237;-67
2023/04/04 09:15:32;;;;;;;5.57;3.13;;;12.30;97.20;;;;;;1708332;29;20552;-67
2023/04/04 09:16:26;;;;;;;3.65;3.00;;;12.20;97.20;;;;;;1707743;29;20222;-67
2023/04/04 09:17:17;;;;;;;5.40;3.30;;;12.30;97.20;;;;;;1708120;29;20225;-67
2023/04/04 09:18:09;;;;;;;3.35;3.05;;;12.30;97.20;;;;;;1708365;29;20230;-67
2023/04/04 09:19:01;;;;;;;3.55;2.83;;;12.40;97.20;;;;;;1708231;29;20276;-67
2023/04/04 09:19:53;;;;;;;2.55;2.35;;;12.40;97.20;;;;;;1708319;29;20583;-67
2023/04/04 09:20:46;;;;;;;6.15;3.03;;;12.50;97.20;;;;;;1708276;29;20223;-67
2023/04/04 09:21:38;;;;;;;3.50;2.75;;;12.60;97.20;;;;;;1708217;29;20210;-67
2023/04/04 09:22:29;;;;;;;6.40;2.90;;;12.70;97.20;;;;;;1708330;29;20576;-68
2023/04/04 09:23:22;;;;;;;4.63;2.92;;;12.80;97.20;;;;;;1708023;29;20215;-67
2023/04/04 09:24:15;;;;;;;3.17;2.75;;;12.90;97.20;;;;;;1713271;28;20198;-67
2023/04/04 09:25:07;;;;;;;5.97;2.75;;;13.10;97.20;;;;;;1715020;28;20264;-67
2023/04/04 09:25:59;;;;;;;3.88;2.80;;;13.20;97.20;;;;;;1714351;28;20242;-67
2023/04/04 09:26:51;;;;;;;2.80;2.60;;;13.30;97.20;;;;;;1714966;28;20288;-67
2023/04/04 09:27:46;;;;;;;3.70;3.00;;;13.40;97.20;;;;;;1714773;28;20198;-67
2023/04/04 09:28:37;;;;;;;3.40;2.80;;;13.50;97.20;;;;;;1714869;28;20210;-67
2023/04/04 09:29:28;;;;;;;3.90;2.92;;;13.60;97.20;;;;;;1714913;28;20220;-67
2023/04/04 09:30:21;;;;;;;5.40;3.53;;;13.50;97.20;;;;;;1714679;28;20232;-67
2023/04/04 09:31:13;;;;;;;3.53;2.15;;;13.60;97.20;;;;;;1714992;28;20202;-67
2023/04/04 09:32:06;;;;;;;6.38;2.83;;;13.60;97.20;;;;;;1714907;28;20220;-67
2023/04/04 09:33:01;;;;;;;3.03;2.72;;;13.60;97.20;;;;;;1714647;28;20218;-67